Latest Weather Observations for Mount Crawford

IDS60901

Issued at 2:11 pm CST Sunday 18 August 2019 (issued every 10 minutes, with the page automatically refreshed every 10 minutes)

About weather observations | Map of Adelaide area stations | Latest observations for Adelaide area | Other Formats
Station Details ID: 023878 Name: MOUNT CRAWFORD AWS Lat: -34.73 Lon: 138.93 Height: 525.0 m
Data from the previous 72 hours. | See also: Recent months at Mount Crawford
Date/Time
CST
Temp
°C
App
Temp
°C
Dew
Point
°C
Rel
Hum
%
Delta-T
°C
Wind Press
QNH
hPa
Press
MSL
hPa
Rain since
9am
mm
Dir  Spd
km/h
Gust
km/h
Spd
kts
Gust
kts
18/02:00pm 4.4 -2.5 4.4 100 0.0 WSW 30 48 16 26 1010.4 1010.6 2.6
18/01:39pm 5.9 -0.4 5.9 100 0.0 W 28 46 15 25 1010.4 1010.6 2.4
18/01:30pm 5.4 -0.6 5.4 100 0.0 W 26 39 14 21 1010.3 1010.5 2.4
18/01:00pm 3.3 -4.2 3.3 100 0.0 WSW 32 44 17 24 1010.8 1011.1 2.2
18/12:35pm 5.4 -2.7 5.1 98 0.1 WNW 37 69 20 37 1010.0 1010.2 1.2
18/12:30pm 7.1 -1.2 6.2 94 0.4 WNW 39 57 21 31 1009.8 1010.0 1.0
18/12:02pm 6.7 -1.6 6.1 96 0.3 W 39 57 21 31 1010.0 1010.2 1.0
18/12:00pm 6.5 -2.2 5.9 96 0.3 W 41 57 22 31 1009.9 1010.1 1.0
18/11:30am 6.4 -2.2 6.4 100 0.0 W 41 59 22 32 1010.1 1010.3 1.0
18/11:00am 5.3 -3.9 5.3 100 0.0 W 43 70 23 38 1009.9 1010.1 1.0
18/10:33am 4.3 -6.8 4.3 100 0.0 W 52 95 28 51 1008.1 1008.3 0.6
18/10:30am 6.8 -3.4 6.8 100 0.0 W 50 70 27 38 1008.8 1009.0 0.0
18/10:00am 6.4 -3.5 6.4 100 0.0 W 48 74 26 40 1008.8 1009.0 0.0
18/09:30am 6.3 -3.7 6.3 100 0.0 W 48 67 26 36 1008.2 1008.4 0.0
18/09:00am 5.7 -4.8 5.7 100 0.0 W 50 69 27 37 1008.3 1008.5 2.0
18/08:30am 6.5 -3.8 6.5 100 0.0 W 50 85 27 46 1007.9 1008.1 2.0
18/08:21am 6.4 -3.5 6.4 100 0.0 WNW 48 85 26 46 1008.0 1008.2 2.0
18/08:00am 6.0 -3.3 6.0 100 0.0 WNW 44 63 24 34 1008.0 1008.2 2.0
18/07:30am 6.6 -2.4 6.6 100 0.0 WNW 43 61 23 33 1007.8 1008.0 2.0
18/07:00am 6.9 -2.0 6.9 100 0.0 WNW 43 65 23 35 1007.6 1007.8 2.0
18/06:32am 7.1 -1.0 7.1 100 0.0 WNW 39 57 21 31 1007.7 1007.9 2.0
18/06:30am 7.1 -0.6 7.1 100 0.0 WNW 37 54 20 29 1007.6 1007.8 2.0
18/06:08am 7.4 -1.4 7.4 100 0.0 WNW 43 61 23 33 1007.6 1007.8 2.0
18/06:00am 7.6 -1.3 7.6 100 0.0 WNW 44 61 24 33 1007.5 1007.6 2.0
18/05:33am 7.8 -0.9 7.8 100 0.0 WNW 43 63 23 34 1007.6 1007.8 2.0
18/05:30am 7.9 0.0 7.9 100 0.0 WNW 39 56 21 30 1007.7 1007.9 2.0
18/05:00am 8.1 -0.1 8.1 100 0.0 WNW 41 61 22 33 1007.9 1008.1 2.0
18/04:30am 8.5 2.1 8.5 100 0.0 WNW 32 50 17 27 1008.5 1008.7 2.0
18/04:15am 8.5 2.5 8.5 100 0.0 WNW 30 50 16 27 1008.6 1008.8 2.0
18/04:00am 8.5 2.5 8.5 100 0.0 WNW 30 43 16 23 1008.6 1008.8 1.8
18/03:31am 8.5 2.1 8.5 100 0.0 WNW 32 50 17 27 1008.4 1008.6 0.2
18/03:30am 8.6 2.2 8.6 100 0.0 WNW 32 46 17 25 1008.6 1008.8 0.2
18/03:02am 9.4 4.0 9.4 100 0.0 WNW 28 46 15 25 1008.8 1009.0 0.0
18/03:00am 9.4 4.0 9.4 100 0.0 WNW 28 39 15 21 1008.8 1009.0 0.0
18/02:30am 9.6 5.0 9.6 100 0.0 WNW 24 35 13 19 1008.8 1009.0 0.0
18/02:00am 9.6 5.3 9.5 99 0.1 WNW 22 30 12 16 1009.2 1009.4 0.0
18/01:30am 10.3 6.6 9.5 95 0.4 NW 19 24 10 13 1009.4 1009.6 0.0
18/01:00am 11.4 7.6 9.7 89 0.9 NW 20 28 11 15 1009.3 1009.5 0.0
18/12:30am 11.7 8.8 9.6 87 1.1 NNW 15 22 8 12 1009.3 1009.5 0.0
18/12:00am 12.0 8.6 9.0 82 1.5 NNW 17 22 9 12 1009.6 1009.8 0.0
 
Date/Time
CST
Temp
°C
App
Temp
°C
Dew
Point
°C
Rel
Hum
%
Delta-T
°C
Wind Press
QNH
hPa
Press
MSL
hPa
Rain since
9am
mm
Dir  Spd
km/h
Gust
km/h
Spd
kts
Gust
kts
17/11:30pm 12.7 8.8 9.3 80 1.8 NNW 20 28 11 15 1009.8 1010.0 0.0
17/11:00pm 14.2 9.2 9.4 73 2.5 NNW 26 37 14 20 1009.9 1010.1 0.0
17/10:30pm 15.3 10.2 9.2 67 3.2 N 26 39 14 21 1009.7 1009.9 0.0
17/10:00pm 14.6 9.3 10.0 74 2.5 NNE 28 37 15 20 1010.0 1010.2 0.0
17/09:30pm 14.6 9.8 10.4 76 2.3 NNE 26 32 14 17 1010.5 1010.7 0.0
17/09:00pm 14.0 9.7 10.8 81 1.7 NE 24 35 13 19 1010.8 1011.1 0.0
17/08:30pm 13.8 9.5 10.8 82 1.6 NNE 24 33 13 18 1011.4 1011.6 0.0
17/08:00pm 13.7 9.3 10.5 81 1.7 NNE 24 30 13 16 1011.6 1011.8 0.0
17/07:30pm 13.5 9.1 10.5 82 1.6 NNE 24 32 13 17 1011.5 1011.7 0.0
17/07:00pm 13.2 8.9 10.7 85 1.3 NNE 24 35 13 19 1011.5 1011.7 0.0
17/06:30pm 13.2 8.9 10.9 86 1.2 NNE 24 33 13 18 1011.8 1012.0 0.0
17/06:00pm 13.0 8.4 10.9 87 1.1 NNE 26 35 14 19 1011.9 1012.1 0.0
17/05:30pm 13.0 8.7 10.9 87 1.1 NNE 24 33 13 18 1012.2 1012.4 0.0
17/05:00pm 12.8 8.9 10.9 88 1.0 NNE 22 32 12 17 1012.4 1012.7 0.0
17/04:30pm 12.7 9.5 11.1 90 0.9 NNE 19 24 10 13 1012.4 1012.7 0.0
17/04:00pm 13.0 9.6 11.2 89 1.0 NNE 20 28 11 15 1012.5 1012.8 0.0
17/03:30pm 13.2 9.4 11.3 88 1.0 NNE 22 30 12 16 1012.8 1013.1 0.0
17/03:00pm 13.6 10.5 12.2 91 0.8 N 20 28 11 15 1013.2 1013.4 0.0
17/02:30pm 14.0 10.1 12.2 89 1.0 N 24 35 13 19 1013.5 1013.7 0.0
17/02:00pm 13.8 9.9 12.0 89 1.0 N 24 35 13 19 1013.8 1014.0 0.0
17/01:30pm 12.8 9.0 11.0 89 1.0 NNE 22 33 12 18 1014.2 1014.5 0.0
17/01:00pm 13.4 9.5 12.1 92 0.7 NNE 24 33 13 18 1014.9 1015.2 0.0
17/12:30pm 11.9 7.2 10.5 91 0.7 N 26 39 14 21 1015.6 1015.8 0.0
17/12:00pm 12.0 7.4 11.1 94 0.5 NNE 26 35 14 19 1016.2 1016.5 0.0
17/11:30am 11.8 7.8 10.5 92 0.7 NNE 22 32 12 17 1016.7 1017.0 0.0
17/11:00am 10.9 6.6 9.5 91 0.7 NNE 22 33 12 18 1017.1 1017.3 0.0
17/10:30am 10.0 5.1 8.6 91 0.7 NNE 24 35 13 19 1017.3 1017.6 0.0
17/10:00am 9.3 4.0 8.5 95 0.4 NE 26 35 14 19 1017.6 1017.9 0.0
17/09:30am 8.4 2.3 8.3 99 0.0 NE 30 41 16 22 1017.7 1018.0 0.0
17/09:00am 7.4 1.5 7.4 100 0.0 NE 28 33 15 18 1018.2 1018.5 0.4
17/08:30am 6.4 0.3 6.4 100 0.0 ENE 28 39 15 21 1018.0 1018.3 0.4
17/08:00am 5.6 -0.3 5.6 100 0.0 ENE 26 32 14 17 1018.1 1018.4 0.4
17/07:30am 4.9 -0.4 4.9 100 0.0 ENE 22 26 12 14 1018.4 1018.7 0.4
17/07:00am 4.0 -1.9 4.0 100 0.0 ENE 24 30 13 16 1018.3 1018.6 0.4
17/06:30am 3.7 -1.9 3.7 100 0.0 ENE 22 28 12 15 1018.4 1018.7 0.4
17/06:00am 3.7 -1.5 3.7 100 0.0 ENE 20 28 11 15 1018.5 1018.8 0.4
17/05:30am 3.6 -1.0 3.6 100 0.0 E 17 22 9 12 1018.3 1018.6 0.4
17/05:00am 3.7 -0.9 3.7 100 0.0 E 17 22 9 12 1018.1 1018.4 0.4
17/04:30am 4.0 -0.2 4.0 100 0.0 E 15 17 8 9 1018.4 1018.7 0.4
17/04:00am 4.1 0.0 4.1 100 0.0 E 15 19 8 10 1018.6 1018.9 0.4
17/03:30am 4.2 0.1 4.2 100 0.0 E 15 19 8 10 1018.6 1018.9 0.4
17/03:00am 4.5 0.4 4.5 100 0.0 ESE 15 19 8 10 1018.8 1019.1 0.4
17/02:30am 4.9 1.3 4.9 100 0.0 ESE 13 15 7 8 1019.3 1019.6 0.4
17/02:00am 5.3 1.4 5.3 100 0.0 ESE 15 19 8 10 1019.6 1019.9 0.4
17/01:30am 5.6 1.8 5.6 100 0.0 ESE 15 19 8 10 1019.7 1020.0 0.4
17/01:00am 6.0 2.6 6.0 100 0.0 E 13 17 7 9 1020.0 1020.3 0.4
17/12:30am 6.1 2.7 6.1 100 0.0 ESE 13 20 7 11 1020.0 1020.3 0.4
17/12:00am 6.3 2.6 6.3 100 0.0 ESE 15 20 8 11 1020.2 1020.5 0.4
 
Date/Time
CST
Temp
°C
App
Temp
°C
Dew
Point
°C
Rel
Hum
%
Delta-T
°C
Wind Press
QNH
hPa
Press
MSL
hPa
Rain since
9am
mm
Dir  Spd
km/h
Gust
km/h
Spd
kts
Gust
kts
16/11:30pm 6.4 2.7 6.4 100 0.0 SE 15 20 8 11 1020.2 1020.5 0.4
16/11:00pm 6.4 2.7 6.4 100 0.0 SSE 15 19 8 10 1020.3 1020.6 0.4
16/10:30pm 6.4 2.7 6.4 100 0.0 SE 15 20 8 11 1020.2 1020.5 0.4
16/10:00pm 6.6 3.0 6.6 100 0.0 SE 15 20 8 11 1020.4 1020.7 0.4
16/09:30pm 6.6 3.0 6.6 100 0.0 SE 15 19 8 10 1020.3 1020.6 0.4
16/09:00pm 6.9 3.7 6.9 100 0.0 SE 13 17 7 9 1020.5 1020.9 0.4
16/08:30pm 7.1 3.6 7.1 100 0.0 SE 15 24 8 13 1020.5 1020.9 0.4
16/08:00pm 7.1 3.2 7.1 100 0.0 SE 17 20 9 11 1020.5 1020.9 0.4
16/07:30pm 7.1 2.8 7.1 100 0.0 SSE 19 24 10 13 1020.4 1020.7 0.4
16/07:00pm 7.1 2.6 7.1 100 0.0 SSE 20 26 11 14 1020.1 1020.4 0.4
16/06:30pm 7.4 3.6 7.4 100 0.0 SSE 17 24 9 13 1019.8 1020.1 0.4
16/06:00pm 7.6 3.8 7.6 100 0.0 SE 17 22 9 12 1019.6 1019.9 0.4
16/05:30pm 7.7 3.6 7.7 100 0.0 SSE 19 28 10 15 1019.4 1019.7 0.4
16/05:00pm 8.3 4.7 8.3 100 0.0 SSE 17 22 9 12 1019.2 1019.5 0.4
16/04:30pm 8.8 4.9 8.8 100 0.0 S 19 24 10 13 1018.9 1019.3 0.4
16/04:00pm 9.5 6.6 9.5 100 0.0 SSE 15 20 8 11 1018.7 1019.0 0.4
16/03:30pm 9.5 6.2 9.5 100 0.0 SSE 17 24 9 13 1018.6 1018.9 0.4
16/03:00pm 10.0 7.2 10.0 100 0.0 SSE 15 22 8 12 1018.3 1018.6 0.2
16/02:30pm 10.8 8.2 10.8 100 0.0 S 15 22 8 12 1018.2 1018.5 0.2
16/02:00pm 10.5 7.1 10.5 100 0.0 SSE 19 24 10 13 1017.9 1018.2 0.2
16/01:30pm 10.3 - - - - S 19 24 10 13 1017.7 1018.0 0.2
16/01:00pm 10.0 - - - - SW 17 26 9 14 1018.1 1018.4 0.2
16/12:30pm 10.4 - - - - W 19 26 10 14 1018.0 1018.3 0.2
16/12:00pm 10.5 - - - - WSW 13 22 7 12 1017.8 1018.1 0.2
16/11:30am 10.3 - - - - WSW 17 30 9 16 1017.9 1018.2 0.2
16/11:00am 10.1 - - - - WSW 15 24 8 13 1017.6 1017.9 0.2
16/10:30am 9.6 - - - - W 19 28 10 15 1017.3 1017.6 0.2
16/10:00am 9.3 - - - - W 20 32 11 17 1016.9 1017.2 0.0
16/09:30am 9.2 - - - - W 32 46 17 25 1016.4 1016.7 0.0
16/09:03am 9.0 - - - - W 35 54 19 29 1016.0 1016.3 0.0
16/09:00am 9.0 - - - - W 37 54 20 29 1015.9 1016.2 0.4
16/08:30am 8.9 2.0 8.9 100 0.0 WNW 35 52 19 28 1015.6 1015.8 0.4
16/08:03am 8.7 2.1 8.7 100 0.0 WNW 33 54 18 29 1015.4 1015.6 0.4
16/08:00am 8.7 2.1 8.7 100 0.0 WNW 33 50 18 27 1015.5 1015.7 0.4
16/07:30am 8.5 0.8 8.5 100 0.0 WNW 39 50 21 27 1014.8 1015.1 0.4
16/07:00am 8.5 1.5 8.5 100 0.0 W 35 46 19 25 1014.0 1014.2 0.2
16/06:30am 8.3 0.9 8.3 100 0.0 W 37 48 20 26 1014.7 1015.0 0.2
16/06:00am 8.4 2.0 8.4 100 0.0 W 32 43 17 23 1014.9 1015.2 0.2
16/05:30am 8.9 2.8 8.3 96 0.3 WNW 30 39 16 21 1015.1 1015.3 0.0
16/05:00am 9.8 3.5 5.6 75 2.0 WNW 28 35 15 19 1015.4 1015.6 0.0
16/04:30am 10.6 3.6 4.1 64 3.0 WNW 30 43 16 23 1015.4 1015.6 0.0
16/04:00am 10.9 3.9 2.2 55 3.8 WNW 28 39 15 21 1015.1 1015.3 0.0
16/03:30am 11.4 5.1 1.4 50 4.3 WNW 24 32 13 17 1015.1 1015.3 0.0
16/03:00am 11.8 5.8 0.9 47 4.7 NW 22 33 12 18 1014.9 1015.2 0.0
16/02:30am 12.2 5.7 0.6 45 5.0 NW 24 33 13 18 1015.1 1015.3 0.0
16/02:00am 12.7 5.9 0.8 44 5.2 NW 26 43 14 23 1014.9 1015.2 0.0
16/01:30am 13.3 5.3 0.7 42 5.5 NW 32 52 17 28 1015.2 1015.4 0.0
16/01:29am 13.6 5.6 0.6 41 5.7 NW 32 52 17 28 1015.1 1015.3 0.0
16/01:00am 13.5 6.3 0.9 42 5.5 NW 28 35 15 19 1014.7 1015.0 0.0
16/12:30am 13.8 6.7 1.1 42 5.6 NW 28 44 15 24 1015.1 1015.3 0.0
16/12:00am 14.1 6.9 0.7 40 5.9 NNW 28 43 15 23 1015.3 1015.5 0.0
 
Date/Time
CST
Temp
°C
App
Temp
°C
Dew
Point
°C
Rel
Hum
%
Delta-T
°C
Wind Press
QNH
hPa
Press
MSL
hPa
Rain since
9am
mm
Dir  Spd
km/h
Gust
km/h
Spd
kts
Gust
kts
15/11:46pm 14.1 6.6 1.1 41 5.7 NNW 30 48 16 26 1015.4 1015.6 0.0
15/11:30pm 14.2 6.3 1.2 41 5.8 NNW 32 48 17 26 1015.5 1015.7 0.0
15/11:00pm 14.5 6.9 0.7 39 6.1 NNW 30 46 16 25 1015.7 1016.0 0.0
15/10:47pm 14.5 6.5 0.7 39 6.1 NNW 32 50 17 27 1015.8 1016.1 0.0
15/10:30pm 14.3 6.4 1.2 41 5.8 NNW 32 46 17 25 1016.0 1016.3 0.0
15/10:00pm 14.2 6.4 1.5 42 5.7 NNW 32 44 17 24 1016.0 1016.3 0.0
15/09:45pm 14.3 6.8 1.2 41 5.8 NNW 30 48 16 26 1016.1 1016.4 0.0
15/09:30pm 14.3 7.2 1.6 42 5.7 NNW 28 39 15 21 1016.1 1016.4 0.0
15/09:00pm 14.1 6.8 2.7 46 5.2 NNW 30 41 16 22 1016.1 1016.4 0.0
15/08:30pm 13.8 7.0 3.0 48 5.0 N 28 35 15 19 1016.3 1016.6 0.0
15/08:00pm 13.4 7.1 4.0 53 4.4 N 26 35 14 19 1016.1 1016.4 0.0
15/07:30pm 13.5 7.6 5.7 59 3.8 NNW 26 35 14 19 1016.2 1016.5 0.0
15/07:00pm 13.6 7.9 6.5 62 3.5 N 26 35 14 19 1016.3 1016.6 0.0
15/06:30pm 13.7 8.4 6.6 62 3.5 N 24 33 13 18 1016.2 1016.5 0.0
15/06:00pm 13.5 7.8 6.6 63 3.4 NNW 26 33 14 18 1016.2 1016.5 0.0
15/05:30pm 13.4 8.2 7.2 66 3.1 N 24 32 13 17 1016.2 1016.5 0.0
15/05:00pm 13.5 9.3 8.1 70 2.8 N 20 26 11 14 1016.3 1016.6 0.0
15/04:30pm 13.8 9.8 8.4 70 2.8 N 19 22 10 12 1016.2 1016.5 0.0
15/04:00pm 14.6 10.4 8.3 66 3.3 N 20 32 11 17 1015.8 1016.1 0.0
15/03:30pm 14.6 9.1 7.4 62 3.6 N 26 35 14 19 1016.3 1016.6 0.0
15/03:00pm 14.3 9.1 7.1 62 3.6 NNW 24 35 13 19 1016.4 1016.7 0.0
15/02:30pm 14.9 9.6 7.0 59 4.0 NNW 24 33 13 18 1016.9 1017.2 0.0

Latest Capital City Observations: Canberra | Sydney | Melbourne | Brisbane | Adelaide | Perth | Hobart | Darwin

Other formats

Comma delimited format used in spreadsheet applications
http://www.bom.gov.au/fwo/IDS60901/IDS60901.94678.axf

JavaScript Object Notation format (JSON) in row-major order
http://www.bom.gov.au/fwo/IDS60901/IDS60901.94678.json

Data quality

Most of these data are generated automatically and are frequently updated. Quality checks on data are not normally performed. It is possible for incorrect values to appear. Refer to information at About Latest Weather Observations and please check the disclaimer before using these data.